sensor_id;sensor_type;location;lat;lon;timestamp;P1;durP1;ratioP1;P2;durP2;ratioP2
66298;SDS011;53098;47.658;8.578;2023-03-23T00:01:34;5.53;;;1.50;;
66298;SDS011;53098;47.658;8.578;2023-03-23T00:03:59;4.37;;;1.60;;
66298;SDS011;53098;47.658;8.578;2023-03-23T00:06:25;4.27;;;1.60;;
66298;SDS011;53098;47.658;8.578;2023-03-23T00:08:52;4.15;;;1.50;;
66298;SDS011;53098;47.658;8.578;2023-03-23T00:11:18;4.25;;;1.40;;
66298;SDS011;53098;47.658;8.578;2023-03-23T00:13:44;3.78;;;1.17;;
66298;SDS011;53098;47.658;8.578;2023-03-23T00:16:10;5.53;;;1.13;;
66298;SDS011;53098;47.658;8.578;2023-03-23T00:18:35;6.20;;;1.47;;
66298;SDS011;53098;47.658;8.578;2023-03-23T00:21:00;8.20;;;1.40;;
66298;SDS011;53098;47.658;8.578;2023-03-23T00:23:26;3.63;;;1.10;;
66298;SDS011;53098;47.658;8.578;2023-03-23T00:25:52;3.13;;;1.33;;
66298;SDS011;53098;47.658;8.578;2023-03-23T00:28:18;5.55;;;1.60;;
66298;SDS011;53098;47.658;8.578;2023-03-23T00:30:44;4.43;;;1.52;;
66298;SDS011;53098;47.658;8.578;2023-03-23T00:33:09;6.63;;;1.70;;
66298;SDS011;53098;47.658;8.578;2023-03-23T00:35:34;5.97;;;1.80;;
66298;SDS011;53098;47.658;8.578;2023-03-23T00:38:00;7.47;;;2.07;;
66298;SDS011;53098;47.658;8.578;2023-03-23T00:40:25;4.10;;;1.80;;
66298;SDS011;53098;47.658;8.578;2023-03-23T00:42:50;4.90;;;1.87;;
66298;SDS011;53098;47.658;8.578;2023-03-23T00:45:15;5.63;;;2.30;;
66298;SDS011;53098;47.658;8.578;2023-03-23T00:47:41;5.90;;;1.97;;
66298;SDS011;53098;47.658;8.578;2023-03-23T00:50:06;6.37;;;2.33;;
66298;SDS011;53098;47.658;8.578;2023-03-23T00:52:31;9.93;;;2.40;;
66298;SDS011;53098;47.658;8.578;2023-03-23T00:54:57;8.93;;;1.80;;
66298;SDS011;53098;47.658;8.578;2023-03-23T00:57:22;4.77;;;1.77;;
66298;SDS011;53098;47.658;8.578;2023-03-23T00:59:47;6.57;;;1.73;;
66298;SDS011;53098;47.658;8.578;2023-03-23T01:02:12;4.37;;;1.77;;
66298;SDS011;53098;47.658;8.578;2023-03-23T01:04:38;6.10;;;1.60;;
66298;SDS011;53098;47.658;8.578;2023-03-23T01:07:04;5.68;;;2.08;;
66298;SDS011;53098;47.658;8.578;2023-03-23T01:09:29;8.13;;;2.00;;
66298;SDS011;53098;47.658;8.578;2023-03-23T01:11:54;5.50;;;1.90;;
66298;SDS011;53098;47.658;8.578;2023-03-23T01:14:19;4.00;;;1.60;;
66298;SDS011;53098;47.658;8.578;2023-03-23T01:16:45;8.13;;;3.00;;
66298;SDS011;53098;47.658;8.578;2023-03-23T01:19:11;5.60;;;1.90;;
66298;SDS011;53098;47.658;8.578;2023-03-23T01:21:36;4.43;;;1.50;;
66298;SDS011;53098;47.658;8.578;2023-03-23T01:24:01;4.85;;;1.40;;
66298;SDS011;53098;47.658;8.578;2023-03-23T01:26:27;2.97;;;1.37;;
66298;SDS011;53098;47.658;8.578;2023-03-23T01:28:52;3.67;;;1.77;;
66298;SDS011;53098;47.658;8.578;2023-03-23T01:31:19;4.70;;;1.45;;
66298;SDS011;53098;47.658;8.578;2023-03-23T01:33:45;5.03;;;1.42;;
66298;SDS011;53098;47.658;8.578;2023-03-23T01:36:11;4.20;;;1.55;;
66298;SDS011;53098;47.658;8.578;2023-03-23T01:38:37;4.90;;;1.23;;
66298;SDS011;53098;47.658;8.578;2023-03-23T01:41:02;4.07;;;1.70;;
66298;SDS011;53098;47.658;8.578;2023-03-23T01:43:28;4.55;;;1.98;;
66298;SDS011;53098;47.658;8.578;2023-03-23T01:45:53;5.15;;;1.33;;
66298;SDS011;53098;47.658;8.578;2023-03-23T01:48:23;3.97;;;1.40;;
66298;SDS011;53098;47.658;8.578;2023-03-23T01:50:51;3.53;;;1.48;;
66298;SDS011;53098;47.658;8.578;2023-03-23T01:53:18;3.35;;;1.52;;
66298;SDS011;53098;47.658;8.578;2023-03-23T01:55:44;6.18;;;1.90;;
66298;SDS011;53098;47.658;8.578;2023-03-23T01:58:10;3.60;;;1.52;;
66298;SDS011;53098;47.658;8.578;2023-03-23T02:00:36;5.22;;;1.90;;
66298;SDS011;53098;47.658;8.578;2023-03-23T02:03:01;5.10;;;1.50;;
66298;SDS011;53098;47.658;8.578;2023-03-23T02:05:30;4.87;;;1.70;;
66298;SDS011;53098;47.658;8.578;2023-03-23T02:07:58;5.07;;;1.75;;
66298;SDS011;53098;47.658;8.578;2023-03-23T02:10:24;6.38;;;1.70;;
66298;SDS011;53098;47.658;8.578;2023-03-23T02:12:49;4.67;;;1.70;;
66298;SDS011;53098;47.658;8.578;2023-03-23T02:15:14;3.63;;;1.40;;
66298;SDS011;53098;47.658;8.578;2023-03-23T02:17:42;6.22;;;1.83;;
66298;SDS011;53098;47.658;8.578;2023-03-23T02:38:25;5.20;;;1.52;;
66298;SDS011;53098;47.658;8.578;2023-03-23T02:40:53;4.38;;;1.80;;
66298;SDS011;53098;47.658;8.578;2023-03-23T02:43:20;6.85;;;2.20;;
66298;SDS011;53098;47.658;8.578;2023-03-23T02:45:46;7.03;;;2.20;;
66298;SDS011;53098;47.658;8.578;2023-03-23T02:48:14;5.22;;;1.67;;
66298;SDS011;53098;47.658;8.578;2023-03-23T02:50:42;4.75;;;1.42;;
66298;SDS011;53098;47.658;8.578;2023-03-23T02:53:09;2.75;;;1.48;;
66298;SDS011;53098;47.658;8.578;2023-03-23T02:55:34;3.63;;;1.58;;
66298;SDS011;53098;47.658;8.578;2023-03-23T02:58:01;3.90;;;1.52;;
66298;SDS011;53098;47.658;8.578;2023-03-23T03:00:26;5.03;;;2.00;;
66298;SDS011;53098;47.658;8.578;2023-03-23T03:02:52;4.05;;;1.52;;
66298;SDS011;53098;47.658;8.578;2023-03-23T03:05:24;6.20;;;2.10;;
66298;SDS011;53098;47.658;8.578;2023-03-23T03:08:03;4.28;;;1.60;;
66298;SDS011;53098;47.658;8.578;2023-03-23T03:10:31;6.80;;;1.85;;
66298;SDS011;53098;47.658;8.578;2023-03-23T03:13:11;4.68;;;1.92;;
66298;SDS011;53098;47.658;8.578;2023-03-23T03:15:59;7.00;;;1.88;;
66298;SDS011;53098;47.658;8.578;2023-03-23T03:18:33;5.43;;;2.28;;
66298;SDS011;53098;47.658;8.578;2023-03-23T03:21:03;5.80;;;2.53;;
66298;SDS011;53098;47.658;8.578;2023-03-23T03:23:29;6.00;;;2.90;;
66298;SDS011;53098;47.658;8.578;2023-03-23T03:25:56;6.65;;;2.47;;
66298;SDS011;53098;47.658;8.578;2023-03-23T03:28:22;5.20;;;2.00;;
66298;SDS011;53098;47.658;8.578;2023-03-23T03:30:49;4.05;;;1.70;;
66298;SDS011;53098;47.658;8.578;2023-03-23T03:33:16;7.18;;;1.73;;
66298;SDS011;53098;47.658;8.578;2023-03-23T03:35:41;8.97;;;2.33;;
66298;SDS011;53098;47.658;8.578;2023-03-23T03:38:08;5.70;;;2.13;;
66298;SDS011;53098;47.658;8.578;2023-03-23T03:40:34;6.72;;;1.98;;
66298;SDS011;53098;47.658;8.578;2023-03-23T03:42:59;7.67;;;2.13;;
66298;SDS011;53098;47.658;8.578;2023-03-23T03:45:24;8.83;;;2.10;;
66298;SDS011;53098;47.658;8.578;2023-03-23T03:47:49;9.50;;;2.23;;
66298;SDS011;53098;47.658;8.578;2023-03-23T03:50:15;7.00;;;1.83;;
66298;SDS011;53098;47.658;8.578;2023-03-23T03:52:40;8.03;;;2.00;;
66298;SDS011;53098;47.658;8.578;2023-03-23T03:55:06;3.60;;;1.63;;
66298;SDS011;53098;47.658;8.578;2023-03-23T03:57:31;6.75;;;1.85;;
66298;SDS011;53098;47.658;8.578;2023-03-23T03:59:57;8.95;;;2.40;;
66298;SDS011;53098;47.658;8.578;2023-03-23T04:02:22;7.77;;;2.23;;
66298;SDS011;53098;47.658;8.578;2023-03-23T04:04:47;5.10;;;1.93;;
66298;SDS011;53098;47.658;8.578;2023-03-23T04:07:12;10.40;;;2.13;;
66298;SDS011;53098;47.658;8.578;2023-03-23T04:09:38;6.33;;;2.00;;
66298;SDS011;53098;47.658;8.578;2023-03-23T04:12:03;5.73;;;1.80;;
66298;SDS011;53098;47.658;8.578;2023-03-23T04:14:28;5.68;;;1.75;;
66298;SDS011;53098;47.658;8.578;2023-03-23T04:16:54;6.50;;;2.13;;
66298;SDS011;53098;47.658;8.578;2023-03-23T04:19:19;4.70;;;2.20;;
66298;SDS011;53098;47.658;8.578;2023-03-23T04:21:44;4.67;;;2.20;;
66298;SDS011;53098;47.658;8.578;2023-03-23T04:24:09;7.07;;;2.53;;
66298;SDS011;53098;47.658;8.578;2023-03-23T04:26:35;4.93;;;1.93;;
66298;SDS011;53098;47.658;8.578;2023-03-23T04:29:00;8.43;;;2.20;;
66298;SDS011;53098;47.658;8.578;2023-03-23T04:31:25;5.07;;;1.80;;
66298;SDS011;53098;47.658;8.578;2023-03-23T04:33:51;7.65;;;2.17;;
66298;SDS011;53098;47.658;8.578;2023-03-23T04:36:16;5.05;;;2.30;;
66298;SDS011;53098;47.658;8.578;2023-03-23T04:38:41;5.67;;;2.10;;
66298;SDS011;53098;47.658;8.578;2023-03-23T04:41:07;6.53;;;1.97;;
66298;SDS011;53098;47.658;8.578;2023-03-23T04:43:32;4.90;;;2.20;;
66298;SDS011;53098;47.658;8.578;2023-03-23T04:45:58;8.30;;;2.03;;
66298;SDS011;53098;47.658;8.578;2023-03-23T04:48:27;5.05;;;2.20;;
66298;SDS011;53098;47.658;8.578;2023-03-23T04:50:53;4.50;;;2.20;;
66298;SDS011;53098;47.658;8.578;2023-03-23T04:53:19;4.38;;;1.90;;
66298;SDS011;53098;47.658;8.578;2023-03-23T04:55:45;3.92;;;1.60;;
66298;SDS011;53098;47.658;8.578;2023-03-23T04:58:11;5.53;;;1.90;;
66298;SDS011;53098;47.658;8.578;2023-03-23T05:00:36;3.63;;;1.60;;
66298;SDS011;53098;47.658;8.578;2023-03-23T05:03:02;4.27;;;1.90;;
66298;SDS011;53098;47.658;8.578;2023-03-23T05:05:27;5.82;;;1.85;;
66298;SDS011;53098;47.658;8.578;2023-03-23T05:07:53;6.63;;;1.80;;
66298;SDS011;53098;47.658;8.578;2023-03-23T05:10:18;9.17;;;1.90;;
66298;SDS011;53098;47.658;8.578;2023-03-23T05:12:43;6.07;;;2.05;;
66298;SDS011;53098;47.658;8.578;2023-03-23T05:15:09;9.75;;;2.30;;
66298;SDS011;53098;47.658;8.578;2023-03-23T05:17:35;7.10;;;2.00;;
66298;SDS011;53098;47.658;8.578;2023-03-23T05:20:01;5.50;;;2.30;;
66298;SDS011;53098;47.658;8.578;2023-03-23T05:22:27;5.65;;;1.92;;
66298;SDS011;53098;47.658;8.578;2023-03-23T05:24:52;6.22;;;2.75;;
66298;SDS011;53098;47.658;8.578;2023-03-23T05:27:17;7.00;;;2.30;;
66298;SDS011;53098;47.658;8.578;2023-03-23T05:29:43;6.15;;;2.25;;
66298;SDS011;53098;47.658;8.578;2023-03-23T05:32:08;4.43;;;1.80;;
66298;SDS011;53098;47.658;8.578;2023-03-23T05:34:34;6.33;;;2.47;;
66298;SDS011;53098;47.658;8.578;2023-03-23T05:36:59;6.47;;;2.20;;
66298;SDS011;53098;47.658;8.578;2023-03-23T05:39:25;3.65;;;1.75;;
66298;SDS011;53098;47.658;8.578;2023-03-23T05:41:50;8.45;;;1.98;;
66298;SDS011;53098;47.658;8.578;2023-03-23T05:44:15;5.07;;;1.90;;
66298;SDS011;53098;47.658;8.578;2023-03-23T05:46:41;5.13;;;1.90;;
66298;SDS011;53098;47.658;8.578;2023-03-23T05:49:06;3.97;;;1.63;;
66298;SDS011;53098;47.658;8.578;2023-03-23T05:51:31;6.40;;;2.63;;
66298;SDS011;53098;47.658;8.578;2023-03-23T05:53:57;4.77;;;1.93;;
66298;SDS011;53098;47.658;8.578;2023-03-23T05:56:22;4.53;;;2.00;;
66298;SDS011;53098;47.658;8.578;2023-03-23T05:58:47;6.78;;;2.17;;
66298;SDS011;53098;47.658;8.578;2023-03-23T06:01:13;5.27;;;2.07;;
66298;SDS011;53098;47.658;8.578;2023-03-23T06:03:38;4.95;;;2.13;;
66298;SDS011;53098;47.658;8.578;2023-03-23T06:06:03;10.40;;;2.20;;
66298;SDS011;53098;47.658;8.578;2023-03-23T06:08:29;5.60;;;2.10;;
66298;SDS011;53098;47.658;8.578;2023-03-23T06:10:54;6.80;;;1.90;;
66298;SDS011;53098;47.658;8.578;2023-03-23T06:13:19;7.10;;;2.23;;
66298;SDS011;53098;47.658;8.578;2023-03-23T06:15:45;4.50;;;1.90;;
66298;SDS011;53098;47.658;8.578;2023-03-23T06:18:10;5.00;;;1.80;;
66298;SDS011;53098;47.658;8.578;2023-03-23T06:20:35;7.27;;;1.80;;
66298;SDS011;53098;47.658;8.578;2023-03-23T06:23:00;4.20;;;1.70;;
66298;SDS011;53098;47.658;8.578;2023-03-23T06:25:26;6.13;;;1.77;;
66298;SDS011;53098;47.658;8.578;2023-03-23T06:27:51;5.13;;;1.77;;
66298;SDS011;53098;47.658;8.578;2023-03-23T06:30:16;3.83;;;1.73;;
66298;SDS011;53098;47.658;8.578;2023-03-23T06:32:42;4.67;;;1.80;;
66298;SDS011;53098;47.658;8.578;2023-03-23T06:35:08;5.93;;;1.83;;
66298;SDS011;53098;47.658;8.578;2023-03-23T06:37:34;6.15;;;1.75;;
66298;SDS011;53098;47.658;8.578;2023-03-23T06:39:59;5.23;;;1.60;;
66298;SDS011;53098;47.658;8.578;2023-03-23T06:42:24;4.70;;;1.50;;
66298;SDS011;53098;47.658;8.578;2023-03-23T06:44:50;4.68;;;1.67;;
66298;SDS011;53098;47.658;8.578;2023-03-23T06:47:15;4.35;;;1.70;;
66298;SDS011;53098;47.658;8.578;2023-03-23T06:49:40;5.67;;;2.10;;
66298;SDS011;53098;47.658;8.578;2023-03-23T06:52:06;8.73;;;2.33;;
66298;SDS011;53098;47.658;8.578;2023-03-23T06:54:31;6.93;;;2.00;;
66298;SDS011;53098;47.658;8.578;2023-03-23T06:56:56;6.70;;;2.10;;
66298;SDS011;53098;47.658;8.578;2023-03-23T06:59:22;4.63;;;2.00;;
66298;SDS011;53098;47.658;8.578;2023-03-23T07:01:47;3.83;;;1.70;;
66298;SDS011;53098;47.658;8.578;2023-03-23T07:04:12;6.05;;;1.90;;
66298;SDS011;53098;47.658;8.578;2023-03-23T07:06:38;4.03;;;1.40;;
66298;SDS011;53098;47.658;8.578;2023-03-23T07:09:03;3.70;;;1.53;;
66298;SDS011;53098;47.658;8.578;2023-03-23T07:11:28;7.47;;;2.40;;
66298;SDS011;53098;47.658;8.578;2023-03-23T07:13:54;6.10;;;1.73;;
66298;SDS011;53098;47.658;8.578;2023-03-23T07:16:19;7.33;;;3.10;;
66298;SDS011;53098;47.658;8.578;2023-03-23T07:18:44;8.57;;;3.30;;
66298;SDS011;53098;47.658;8.578;2023-03-23T07:21:10;6.50;;;2.37;;
66298;SDS011;53098;47.658;8.578;2023-03-23T07:23:35;6.93;;;2.90;;
66298;SDS011;53098;47.658;8.578;2023-03-23T07:26:00;6.87;;;2.80;;
66298;SDS011;53098;47.658;8.578;2023-03-23T07:28:25;9.10;;;2.57;;
66298;SDS011;53098;47.658;8.578;2023-03-23T07:30:51;8.37;;;2.43;;
66298;SDS011;53098;47.658;8.578;2023-03-23T07:33:16;5.82;;;2.40;;
66298;SDS011;53098;47.658;8.578;2023-03-23T07:35:41;15.40;;;2.87;;
66298;SDS011;53098;47.658;8.578;2023-03-23T07:38:07;7.17;;;2.77;;
66298;SDS011;53098;47.658;8.578;2023-03-23T07:40:32;7.03;;;2.50;;
66298;SDS011;53098;47.658;8.578;2023-03-23T07:42:58;7.15;;;2.70;;
66298;SDS011;53098;47.658;8.578;2023-03-23T07:45:24;6.63;;;3.00;;
66298;SDS011;53098;47.658;8.578;2023-03-23T07:47:49;7.97;;;3.03;;
66298;SDS011;53098;47.658;8.578;2023-03-23T07:50:14;10.30;;;3.97;;
66298;SDS011;53098;47.658;8.578;2023-03-23T07:52:40;7.80;;;3.37;;
66298;SDS011;53098;47.658;8.578;2023-03-23T07:55:05;12.77;;;3.20;;
66298;SDS011;53098;47.658;8.578;2023-03-23T07:57:31;7.95;;;3.03;;
66298;SDS011;53098;47.658;8.578;2023-03-23T07:59:57;6.68;;;2.35;;
66298;SDS011;53098;47.658;8.578;2023-03-23T08:02:22;11.40;;;2.83;;
66298;SDS011;53098;47.658;8.578;2023-03-23T08:04:48;6.00;;;2.13;;
66298;SDS011;53098;47.658;8.578;2023-03-23T08:07:13;5.93;;;2.30;;
66298;SDS011;53098;47.658;8.578;2023-03-23T08:09:39;6.88;;;1.88;;
66298;SDS011;53098;47.658;8.578;2023-03-23T08:12:04;7.07;;;2.10;;
66298;SDS011;53098;47.658;8.578;2023-03-23T08:14:29;10.68;;;1.98;;
66298;SDS011;53098;47.658;8.578;2023-03-23T08:16:55;4.80;;;2.07;;
66298;SDS011;53098;47.658;8.578;2023-03-23T08:19:20;5.70;;;2.17;;
66298;SDS011;53098;47.658;8.578;2023-03-23T08:21:45;5.25;;;2.10;;
66298;SDS011;53098;47.658;8.578;2023-03-23T08:24:11;9.87;;;1.87;;
66298;SDS011;53098;47.658;8.578;2023-03-23T08:26:36;7.37;;;2.50;;
66298;SDS011;53098;47.658;8.578;2023-03-23T08:29:01;7.73;;;2.60;;
66298;SDS011;53098;47.658;8.578;2023-03-23T08:31:27;5.93;;;2.20;;
66298;SDS011;53098;47.658;8.578;2023-03-23T08:33:52;4.83;;;1.93;;
66298;SDS011;53098;47.658;8.578;2023-03-23T08:36:17;4.40;;;1.80;;
66298;SDS011;53098;47.658;8.578;2023-03-23T08:38:42;6.60;;;2.23;;
66298;SDS011;53098;47.658;8.578;2023-03-23T08:41:08;5.43;;;1.80;;
66298;SDS011;53098;47.658;8.578;2023-03-23T08:43:34;5.63;;;2.70;;
66298;SDS011;53098;47.658;8.578;2023-03-23T08:45:59;5.03;;;2.10;;
66298;SDS011;53098;47.658;8.578;2023-03-23T08:48:25;6.10;;;2.13;;
66298;SDS011;53098;47.658;8.578;2023-03-23T08:50:50;7.43;;;2.10;;
66298;SDS011;53098;47.658;8.578;2023-03-23T08:53:16;4.90;;;2.13;;
66298;SDS011;53098;47.658;8.578;2023-03-23T08:55:41;7.20;;;1.90;;
66298;SDS011;53098;47.658;8.578;2023-03-23T08:58:06;4.23;;;1.80;;
66298;SDS011;53098;47.658;8.578;2023-03-23T09:00:32;5.00;;;2.10;;
66298;SDS011;53098;47.658;8.578;2023-03-23T09:02:57;5.57;;;2.40;;
66298;SDS011;53098;47.658;8.578;2023-03-23T09:05:23;7.13;;;2.33;;
66298;SDS011;53098;47.658;8.578;2023-03-23T09:07:49;5.63;;;2.40;;
66298;SDS011;53098;47.658;8.578;2023-03-23T09:10:15;5.95;;;2.15;;
66298;SDS011;53098;47.658;8.578;2023-03-23T09:12:41;6.22;;;2.10;;
66298;SDS011;53098;47.658;8.578;2023-03-23T09:15:07;7.50;;;2.45;;
66298;SDS011;53098;47.658;8.578;2023-03-23T09:17:33;7.68;;;2.30;;
66298;SDS011;53098;47.658;8.578;2023-03-23T09:19:58;5.77;;;2.00;;
66298;SDS011;53098;47.658;8.578;2023-03-23T09:22:23;5.68;;;2.10;;
66298;SDS011;53098;47.658;8.578;2023-03-23T09:24:49;7.68;;;2.53;;
66298;SDS011;53098;47.658;8.578;2023-03-23T09:27:14;7.45;;;2.22;;
66298;SDS011;53098;47.658;8.578;2023-03-23T09:29:40;6.83;;;2.37;;
66298;SDS011;53098;47.658;8.578;2023-03-23T09:32:05;5.67;;;2.10;;
66298;SDS011;53098;47.658;8.578;2023-03-23T09:34:30;9.37;;;2.63;;
66298;SDS011;53098;47.658;8.578;2023-03-23T09:36:55;6.97;;;2.20;;
66298;SDS011;53098;47.658;8.578;2023-03-23T09:39:21;10.50;;;2.33;;
66298;SDS011;53098;47.658;8.578;2023-03-23T09:41:51;6.23;;;2.40;;
66298;SDS011;53098;47.658;8.578;2023-03-23T09:44:30;10.75;;;2.50;;
66298;SDS011;53098;47.658;8.578;2023-03-23T09:49:41;7.22;;;2.20;;
66298;SDS011;53098;47.658;8.578;2023-03-23T09:52:14;10.55;;;2.10;;
66298;SDS011;53098;47.658;8.578;2023-03-23T09:54:41;6.60;;;2.05;;
66298;SDS011;53098;47.658;8.578;2023-03-23T09:59:57;5.97;;;2.30;;
66298;SDS011;53098;47.658;8.578;2023-03-23T10:02:36;7.63;;;2.50;;
66298;SDS011;53098;47.658;8.578;2023-03-23T10:05:49;9.32;;;1.73;;
66298;SDS011;53098;47.658;8.578;2023-03-23T10:07:49;6.35;;;1.67;;
66298;SDS011;53098;47.658;8.578;2023-03-23T10:10:14;5.53;;;1.40;;
66298;SDS011;53098;47.658;8.578;2023-03-23T10:12:45;4.20;;;1.42;;
66298;SDS011;53098;47.658;8.578;2023-03-23T10:15:14;4.57;;;1.40;;
66298;SDS011;53098;47.658;8.578;2023-03-23T10:18:00;3.72;;;1.25;;
66298;SDS011;53098;47.658;8.578;2023-03-23T10:23:24;4.18;;;1.77;;
66298;SDS011;53098;47.658;8.578;2023-03-23T10:25:45;3.00;;;1.30;;
66298;SDS011;53098;47.658;8.578;2023-03-23T10:28:13;8.55;;;1.60;;
66298;SDS011;53098;47.658;8.578;2023-03-23T10:30:41;3.97;;;1.40;;
66298;SDS011;53098;47.658;8.578;2023-03-23T10:33:18;3.55;;;1.63;;
66298;SDS011;53098;47.658;8.578;2023-03-23T10:36:31;4.80;;;1.60;;
66298;SDS011;53098;47.658;8.578;2023-03-23T10:38:37;4.53;;;1.98;;
66298;SDS011;53098;47.658;8.578;2023-03-23T10:41:14;4.95;;;1.50;;
66298;SDS011;53098;47.658;8.578;2023-03-23T10:43:40;4.53;;;1.90;;
66298;SDS011;53098;47.658;8.578;2023-03-23T10:46:09;4.90;;;1.58;;
66298;SDS011;53098;47.658;8.578;2023-03-23T10:48:37;3.67;;;1.60;;
66298;SDS011;53098;47.658;8.578;2023-03-23T10:51:03;4.75;;;1.50;;
66298;SDS011;53098;47.658;8.578;2023-03-23T10:53:34;6.97;;;1.63;;
66298;SDS011;53098;47.658;8.578;2023-03-23T10:56:00;4.32;;;1.70;;
66298;SDS011;53098;47.658;8.578;2023-03-23T10:58:26;5.40;;;1.58;;
66298;SDS011;53098;47.658;8.578;2023-03-23T11:00:52;4.25;;;1.42;;
66298;SDS011;53098;47.658;8.578;2023-03-23T11:05:56;3.00;;;1.50;;
66298;SDS011;53098;47.658;8.578;2023-03-23T11:08:23;4.20;;;1.67;;
66298;SDS011;53098;47.658;8.578;2023-03-23T11:13:17;6.83;;;1.83;;
66298;SDS011;53098;47.658;8.578;2023-03-23T11:15:44;5.20;;;1.38;;
66298;SDS011;53098;47.658;8.578;2023-03-23T11:18:11;6.28;;;1.40;;
66298;SDS011;53098;47.658;8.578;2023-03-23T11:20:37;4.07;;;1.45;;
66298;SDS011;53098;47.658;8.578;2023-03-23T11:23:19;3.40;;;1.30;;
66298;SDS011;53098;47.658;8.578;2023-03-23T11:25:55;3.38;;;1.50;;
66298;SDS011;53098;47.658;8.578;2023-03-23T11:28:21;3.85;;;1.30;;
66298;SDS011;53098;47.658;8.578;2023-03-23T11:30:46;1.98;;;1.00;;
66298;SDS011;53098;47.658;8.578;2023-03-23T11:33:12;4.27;;;1.37;;
66298;SDS011;53098;47.658;8.578;2023-03-23T11:35:37;3.87;;;1.60;;
66298;SDS011;53098;47.658;8.578;2023-03-23T11:38:02;3.97;;;1.25;;
66298;SDS011;53098;47.658;8.578;2023-03-23T11:40:31;5.25;;;1.50;;
66298;SDS011;53098;47.658;8.578;2023-03-23T11:45:25;4.83;;;1.40;;
66298;SDS011;53098;47.658;8.578;2023-03-23T11:47:59;5.65;;;1.60;;
66298;SDS011;53098;47.658;8.578;2023-03-23T11:50:43;2.95;;;1.08;;
66298;SDS011;53098;47.658;8.578;2023-03-23T11:53:22;4.18;;;1.52;;
66298;SDS011;53098;47.658;8.578;2023-03-23T11:55:52;2.70;;;1.27;;
66298;SDS011;53098;47.658;8.578;2023-03-23T11:58:19;4.32;;;1.83;;
66298;SDS011;53098;47.658;8.578;2023-03-23T12:03:13;4.28;;;1.35;;
66298;SDS011;53098;47.658;8.578;2023-03-23T12:05:47;4.00;;;1.33;;
66298;SDS011;53098;47.658;8.578;2023-03-23T12:11:12;3.08;;;1.27;;
66298;SDS011;53098;47.658;8.578;2023-03-23T12:16:19;3.47;;;1.50;;
66298;SDS011;53098;47.658;8.578;2023-03-23T12:23:49;4.60;;;1.77;;
66298;SDS011;53098;47.658;8.578;2023-03-23T12:26:25;4.43;;;1.50;;
66298;SDS011;53098;47.658;8.578;2023-03-23T12:28:58;4.38;;;1.77;;
66298;SDS011;53098;47.658;8.578;2023-03-23T12:31:32;3.58;;;1.40;;
66298;SDS011;53098;47.658;8.578;2023-03-23T12:44:04;4.07;;;1.70;;
66298;SDS011;53098;47.658;8.578;2023-03-23T12:49:02;3.30;;;1.27;;
66298;SDS011;53098;47.658;8.578;2023-03-23T12:54:09;4.35;;;1.50;;
66298;SDS011;53098;47.658;8.578;2023-03-23T12:59:38;3.58;;;1.55;;
66298;SDS011;53098;47.658;8.578;2023-03-23T13:02:13;6.32;;;1.42;;
66298;SDS011;53098;47.658;8.578;2023-03-23T13:04:41;3.28;;;1.50;;
66298;SDS011;53098;47.658;8.578;2023-03-23T13:07:09;4.38;;;1.60;;
66298;SDS011;53098;47.658;8.578;2023-03-23T13:09:43;3.85;;;1.55;;
66298;SDS011;53098;47.658;8.578;2023-03-23T13:12:10;3.90;;;1.40;;
66298;SDS011;53098;47.658;8.578;2023-03-23T13:24:59;2.90;;;1.30;;
66298;SDS011;53098;47.658;8.578;2023-03-23T13:27:26;3.80;;;1.20;;
66298;SDS011;53098;47.658;8.578;2023-03-23T13:29:51;3.92;;;1.30;;
66298;SDS011;53098;47.658;8.578;2023-03-23T13:32:17;8.53;;;2.17;;
66298;SDS011;53098;47.658;8.578;2023-03-23T13:34:42;4.47;;;1.65;;
66298;SDS011;53098;47.658;8.578;2023-03-23T13:39:49;6.20;;;1.75;;
66298;SDS011;53098;47.658;8.578;2023-03-23T13:44:54;6.80;;;1.70;;
66298;SDS011;53098;47.658;8.578;2023-03-23T13:49:52;4.90;;;1.45;;
66298;SDS011;53098;47.658;8.578;2023-03-23T13:54:44;4.60;;;1.70;;
66298;SDS011;53098;47.658;8.578;2023-03-23T13:59:57;4.55;;;1.60;;
66298;SDS011;53098;47.658;8.578;2023-03-23T14:02:33;3.53;;;1.40;;
66298;SDS011;53098;47.658;8.578;2023-03-23T14:05:24;4.22;;;1.50;;
66298;SDS011;53098;47.658;8.578;2023-03-23T14:07:52;4.45;;;1.50;;
66298;SDS011;53098;47.658;8.578;2023-03-23T14:10:17;4.85;;;1.63;;
66298;SDS011;53098;47.658;8.578;2023-03-23T14:12:43;3.97;;;1.50;;
66298;SDS011;53098;47.658;8.578;2023-03-23T14:15:13;5.25;;;1.60;;
66298;SDS011;53098;47.658;8.578;2023-03-23T14:17:43;7.00;;;1.88;;
66298;SDS011;53098;47.658;8.578;2023-03-23T14:20:09;4.88;;;1.67;;
66298;SDS011;53098;47.658;8.578;2023-03-23T14:22:41;3.85;;;1.63;;
66298;SDS011;53098;47.658;8.578;2023-03-23T14:25:10;4.60;;;1.60;;
66298;SDS011;53098;47.658;8.578;2023-03-23T14:27:36;6.25;;;1.83;;
66298;SDS011;53098;47.658;8.578;2023-03-23T14:30:23;6.50;;;1.88;;
66298;SDS011;53098;47.658;8.578;2023-03-23T14:32:47;4.55;;;1.50;;
66298;SDS011;53098;47.658;8.578;2023-03-23T14:35:19;4.13;;;1.60;;
66298;SDS011;53098;47.658;8.578;2023-03-23T14:37:46;4.97;;;1.80;;
66298;SDS011;53098;47.658;8.578;2023-03-23T14:40:12;5.50;;;2.10;;
66298;SDS011;53098;47.658;8.578;2023-03-23T14:42:38;5.95;;;1.83;;
66298;SDS011;53098;47.658;8.578;2023-03-23T14:45:04;5.13;;;1.80;;
66298;SDS011;53098;47.658;8.578;2023-03-23T14:47:32;4.28;;;1.60;;
66298;SDS011;53098;47.658;8.578;2023-03-23T14:49:58;4.97;;;1.80;;
66298;SDS011;53098;47.658;8.578;2023-03-23T14:52:25;5.95;;;1.85;;
66298;SDS011;53098;47.658;8.578;2023-03-23T14:54:51;6.38;;;2.33;;
66298;SDS011;53098;47.658;8.578;2023-03-23T14:57:25;7.40;;;1.77;;
66298;SDS011;53098;47.658;8.578;2023-03-23T14:59:51;4.55;;;1.80;;
66298;SDS011;53098;47.658;8.578;2023-03-23T15:02:19;4.30;;;1.70;;
66298;SDS011;53098;47.658;8.578;2023-03-23T15:04:46;4.43;;;1.98;;
66298;SDS011;53098;47.658;8.578;2023-03-23T15:07:13;4.00;;;1.60;;
66298;SDS011;53098;47.658;8.578;2023-03-23T15:09:39;5.47;;;2.35;;
66298;SDS011;53098;47.658;8.578;2023-03-23T15:12:09;5.63;;;2.05;;
66298;SDS011;53098;47.658;8.578;2023-03-23T15:14:45;5.07;;;1.67;;
66298;SDS011;53098;47.658;8.578;2023-03-23T15:17:18;4.82;;;1.70;;
66298;SDS011;53098;47.658;8.578;2023-03-23T15:19:43;6.22;;;1.95;;
66298;SDS011;53098;47.658;8.578;2023-03-23T15:24:43;4.30;;;1.52;;
66298;SDS011;53098;47.658;8.578;2023-03-23T15:27:16;5.53;;;1.80;;
66298;SDS011;53098;47.658;8.578;2023-03-23T15:29:52;6.10;;;1.70;;
66298;SDS011;53098;47.658;8.578;2023-03-23T15:32:21;5.03;;;1.73;;
66298;SDS011;53098;47.658;8.578;2023-03-23T15:34:47;7.72;;;2.03;;
66298;SDS011;53098;47.658;8.578;2023-03-23T15:37:30;4.10;;;1.63;;
66298;SDS011;53098;47.658;8.578;2023-03-23T15:39:56;4.60;;;1.85;;
66298;SDS011;53098;47.658;8.578;2023-03-23T15:42:29;3.88;;;1.60;;
66298;SDS011;53098;47.658;8.578;2023-03-23T15:50:52;4.20;;;1.45;;
66298;SDS011;53098;47.658;8.578;2023-03-23T15:52:52;4.18;;;1.50;;
66298;SDS011;53098;47.658;8.578;2023-03-23T15:55:25;4.47;;;1.50;;
66298;SDS011;53098;47.658;8.578;2023-03-23T15:57:51;4.15;;;1.40;;
66298;SDS011;53098;47.658;8.578;2023-03-23T16:00:17;7.97;;;1.50;;
66298;SDS011;53098;47.658;8.578;2023-03-23T16:02:44;4.65;;;1.70;;
66298;SDS011;53098;47.658;8.578;2023-03-23T16:05:12;4.70;;;1.80;;
66298;SDS011;53098;47.658;8.578;2023-03-23T16:07:38;5.65;;;1.42;;
66298;SDS011;53098;47.658;8.578;2023-03-23T16:10:04;4.27;;;1.80;;
66298;SDS011;53098;47.658;8.578;2023-03-23T16:12:29;3.45;;;1.50;;
66298;SDS011;53098;47.658;8.578;2023-03-23T16:14:54;3.23;;;1.50;;
66298;SDS011;53098;47.658;8.578;2023-03-23T16:17:20;5.03;;;1.70;;
66298;SDS011;53098;47.658;8.578;2023-03-23T16:19:45;5.43;;;1.30;;
66298;SDS011;53098;47.658;8.578;2023-03-23T16:22:10;5.77;;;1.53;;
66298;SDS011;53098;47.658;8.578;2023-03-23T16:24:35;5.63;;;1.80;;